sensor_id;sensor_type;location;lat;lon;timestamp;pressure;altitude;pressure_sealevel;temperature;humidity
43394;BME280;62479;62.642;17.954;2022-10-16T00:00:14;100666.84;;;0.48;79.29
43394;BME280;62479;62.642;17.954;2022-10-16T00:02:43;100656.94;;;0.49;79.25
43394;BME280;62479;62.642;17.954;2022-10-16T00:05:12;100652.90;;;0.56;78.72
43394;BME280;62479;62.642;17.954;2022-10-16T00:07:41;100645.73;;;0.62;77.89
43394;BME280;62479;62.642;17.954;2022-10-16T00:10:11;100637.16;;;0.56;77.79
43394;BME280;62479;62.642;17.954;2022-10-16T00:12:40;100633.38;;;0.53;77.62
43394;BME280;62479;62.642;17.954;2022-10-16T00:15:09;100634.85;;;0.49;77.61
43394;BME280;62479;62.642;17.954;2022-10-16T00:17:37;100632.42;;;0.38;77.79
43394;BME280;62479;62.642;17.954;2022-10-16T00:20:07;100629.20;;;0.32;78.00
43394;BME280;62479;62.642;17.954;2022-10-16T00:22:36;100625.79;;;0.21;77.82
43394;BME280;62479;62.642;17.954;2022-10-16T00:25:05;100624.59;;;0.05;78.06
43394;BME280;62479;62.642;17.954;2022-10-16T00:27:41;100625.39;;;-0.02;78.32
43394;BME280;62479;62.642;17.954;2022-10-16T00:30:12;100629.30;;;-0.00;78.65
43394;BME280;62479;62.642;17.954;2022-10-16T00:32:40;100622.80;;;-0.01;78.53
43394;BME280;62479;62.642;17.954;2022-10-16T00:35:09;100627.45;;;-0.01;78.47
43394;BME280;62479;62.642;17.954;2022-10-16T00:37:38;100624.97;;;-0.11;78.49
43394;BME280;62479;62.642;17.954;2022-10-16T00:40:08;100620.20;;;-0.15;78.25
43394;BME280;62479;62.642;17.954;2022-10-16T00:42:37;100622.21;;;-0.03;78.43
43394;BME280;62479;62.642;17.954;2022-10-16T00:45:08;100621.60;;;-0.19;78.38
43394;BME280;62479;62.642;17.954;2022-10-16T00:47:39;100619.98;;;-0.17;78.32
43394;BME280;62479;62.642;17.954;2022-10-16T00:50:13;100625.09;;;-0.21;78.10
43394;BME280;62479;62.642;17.954;2022-10-16T00:52:47;100627.46;;;-0.15;78.81
43394;BME280;62479;62.642;17.954;2022-10-16T00:55:19;100629.04;;;-0.21;78.71
43394;BME280;62479;62.642;17.954;2022-10-16T00:57:48;100628.23;;;-0.27;78.27
43394;BME280;62479;62.642;17.954;2022-10-16T01:00:22;100629.88;;;-0.19;78.62
43394;BME280;62479;62.642;17.954;2022-10-16T01:02:53;100628.19;;;-0.25;78.54
43394;BME280;62479;62.642;17.954;2022-10-16T01:05:22;100624.30;;;-0.31;78.55
43394;BME280;62479;62.642;17.954;2022-10-16T01:07:56;100625.85;;;-0.30;78.53
43394;BME280;62479;62.642;17.954;2022-10-16T01:10:33;100615.66;;;-0.26;78.30
43394;BME280;62479;62.642;17.954;2022-10-16T01:13:07;100616.11;;;-0.29;78.13
43394;BME280;62479;62.642;17.954;2022-10-16T01:15:38;100612.24;;;-0.35;77.92
43394;BME280;62479;62.642;17.954;2022-10-16T01:18:14;100615.22;;;-0.40;77.86
43394;BME280;62479;62.642;17.954;2022-10-16T01:20:48;100614.42;;;-0.50;78.06
43394;BME280;62479;62.642;17.954;2022-10-16T01:23:29;100620.24;;;-0.35;78.17
43394;BME280;62479;62.642;17.954;2022-10-16T01:26:20;100618.36;;;-0.42;78.10
43394;BME280;62479;62.642;17.954;2022-10-16T01:28:55;100612.83;;;-0.28;78.45
43394;BME280;62479;62.642;17.954;2022-10-16T01:31:31;100596.32;;;-0.28;78.40
43394;BME280;62479;62.642;17.954;2022-10-16T01:34:03;100583.81;;;-0.16;77.57
43394;BME280;62479;62.642;17.954;2022-10-16T01:36:38;100578.97;;;-0.24;77.47
43394;BME280;62479;62.642;17.954;2022-10-16T01:39:10;100582.56;;;-0.13;77.55
43394;BME280;62479;62.642;17.954;2022-10-16T01:41:43;100579.44;;;-0.17;78.04
43394;BME280;62479;62.642;17.954;2022-10-16T01:44:17;100575.18;;;-0.09;78.23
43394;BME280;62479;62.642;17.954;2022-10-16T01:46:50;100566.18;;;-0.03;78.44
43394;BME280;62479;62.642;17.954;2022-10-16T01:49:21;100554.82;;;-0.05;77.98
43394;BME280;62479;62.642;17.954;2022-10-16T01:51:55;100545.84;;;0.10;77.74
43394;BME280;62479;62.642;17.954;2022-10-16T01:54:27;100527.02;;;0.19;77.89
43394;BME280;62479;62.642;17.954;2022-10-16T01:56:57;100517.22;;;0.16;77.29
43394;BME280;62479;62.642;17.954;2022-10-16T01:59:29;100528.46;;;0.36;77.39
43394;BME280;62479;62.642;17.954;2022-10-16T02:02:05;100523.04;;;0.31;77.48
43394;BME280;62479;62.642;17.954;2022-10-16T02:04:39;100519.89;;;0.55;77.23
43394;BME280;62479;62.642;17.954;2022-10-16T02:07:10;100512.05;;;0.52;76.97
43394;BME280;62479;62.642;17.954;2022-10-16T02:09:39;100506.30;;;0.70;76.93
43394;BME280;62479;62.642;17.954;2022-10-16T02:12:13;100488.39;;;0.87;76.38
43394;BME280;62479;62.642;17.954;2022-10-16T02:14:44;100477.71;;;0.95;76.21
43394;BME280;62479;62.642;17.954;2022-10-16T02:17:15;100475.69;;;0.93;76.03
43394;BME280;62479;62.642;17.954;2022-10-16T02:19:48;100473.58;;;1.05;75.99
43394;BME280;62479;62.642;17.954;2022-10-16T02:22:23;100477.95;;;0.95;76.11
43394;BME280;62479;62.642;17.954;2022-10-16T02:24:57;100465.64;;;0.87;76.64
43394;BME280;62479;62.642;17.954;2022-10-16T02:27:32;100459.85;;;0.92;76.84
43394;BME280;62479;62.642;17.954;2022-10-16T02:30:07;100474.29;;;0.78;77.37
43394;BME280;62479;62.642;17.954;2022-10-16T02:32:39;100472.65;;;0.76;77.76
43394;BME280;62479;62.642;17.954;2022-10-16T02:35:09;100471.88;;;0.80;77.44
43394;BME280;62479;62.642;17.954;2022-10-16T02:37:38;100460.94;;;1.01;76.96
43394;BME280;62479;62.642;17.954;2022-10-16T02:40:10;100458.86;;;0.95;76.77
43394;BME280;62479;62.642;17.954;2022-10-16T02:42:41;100453.11;;;0.90;76.95
43394;BME280;62479;62.642;17.954;2022-10-16T02:45:11;100445.33;;;1.06;76.63
43394;BME280;62479;62.642;17.954;2022-10-16T02:47:39;100440.12;;;1.11;76.62
43394;BME280;62479;62.642;17.954;2022-10-16T02:50:08;100434.92;;;1.08;76.67
43394;BME280;62479;62.642;17.954;2022-10-16T02:52:37;100423.74;;;1.05;76.50
43394;BME280;62479;62.642;17.954;2022-10-16T02:55:07;100412.60;;;1.30;76.53
43394;BME280;62479;62.642;17.954;2022-10-16T02:57:37;100405.65;;;1.34;76.17
43394;BME280;62479;62.642;17.954;2022-10-16T03:00:06;100409.25;;;1.46;76.57
43394;BME280;62479;62.642;17.954;2022-10-16T03:02:44;100411.65;;;1.39;76.77
43394;BME280;62479;62.642;17.954;2022-10-16T03:05:12;100415.11;;;1.28;76.96
43394;BME280;62479;62.642;17.954;2022-10-16T03:07:41;100412.98;;;1.38;77.29
43394;BME280;62479;62.642;17.954;2022-10-16T03:10:11;100409.14;;;1.43;77.21
43394;BME280;62479;62.642;17.954;2022-10-16T03:12:40;100402.66;;;1.38;76.92
43394;BME280;62479;62.642;17.954;2022-10-16T03:15:09;100396.00;;;1.37;76.87
43394;BME280;62479;62.642;17.954;2022-10-16T03:17:37;100392.96;;;1.55;76.85
43394;BME280;62479;62.642;17.954;2022-10-16T03:20:07;100395.30;;;1.45;76.58
43394;BME280;62479;62.642;17.954;2022-10-16T03:22:36;100385.71;;;1.52;76.48
43394;BME280;62479;62.642;17.954;2022-10-16T03:25:05;100391.41;;;1.50;76.32
43394;BME280;62479;62.642;17.954;2022-10-16T03:27:35;100392.25;;;1.57;76.33
43394;BME280;62479;62.642;17.954;2022-10-16T03:30:04;100396.18;;;1.41;76.53
43394;BME280;62479;62.642;17.954;2022-10-16T03:32:33;100386.71;;;1.43;76.64
43394;BME280;62479;62.642;17.954;2022-10-16T03:35:02;100375.49;;;1.61;76.59
43394;BME280;62479;62.642;17.954;2022-10-16T03:37:32;100385.51;;;1.53;76.66
43394;BME280;62479;62.642;17.954;2022-10-16T03:39:59;100384.42;;;1.60;76.75
43394;BME280;62479;62.642;17.954;2022-10-16T03:42:29;100369.79;;;1.58;76.66
43394;BME280;62479;62.642;17.954;2022-10-16T03:44:57;100360.83;;;1.56;76.57
43394;BME280;62479;62.642;17.954;2022-10-16T03:47:26;100343.90;;;1.62;76.37
43394;BME280;62479;62.642;17.954;2022-10-16T03:49:56;100327.14;;;1.74;76.16
43394;BME280;62479;62.642;17.954;2022-10-16T03:52:25;100318.08;;;1.77;76.04
43394;BME280;62479;62.642;17.954;2022-10-16T03:54:54;100317.39;;;1.99;75.64
43394;BME280;62479;62.642;17.954;2022-10-16T03:57:22;100323.16;;;2.07;75.74
43394;BME280;62479;62.642;17.954;2022-10-16T03:59:51;100331.54;;;2.28;75.72
43394;BME280;62479;62.642;17.954;2022-10-16T04:03:21;100332.51;;;2.13;75.87
43394;BME280;62479;62.642;17.954;2022-10-16T04:05:49;100319.85;;;2.10;76.24
43394;BME280;62479;62.642;17.954;2022-10-16T04:08:18;100302.97;;;2.27;75.90
43394;BME280;62479;62.642;17.954;2022-10-16T04:10:47;100289.78;;;2.62;74.81
43394;BME280;62479;62.642;17.954;2022-10-16T04:13:16;100288.13;;;2.74;74.53
43394;BME280;62479;62.642;17.954;2022-10-16T04:15:46;100279.56;;;2.75;74.53
43394;BME280;62479;62.642;17.954;2022-10-16T04:18:15;100255.80;;;2.83;74.03
43394;BME280;62479;62.642;17.954;2022-10-16T04:20:44;100239.36;;;2.97;74.02
43394;BME280;62479;62.642;17.954;2022-10-16T04:23:13;100249.87;;;3.06;74.35
43394;BME280;62479;62.642;17.954;2022-10-16T04:25:42;100249.84;;;3.02;74.71
43394;BME280;62479;62.642;17.954;2022-10-16T04:28:12;100238.95;;;3.03;74.89
43394;BME280;62479;62.642;17.954;2022-10-16T04:30:40;100234.94;;;3.14;74.64
43394;BME280;62479;62.642;17.954;2022-10-16T04:33:09;100233.97;;;3.10;75.06
43394;BME280;62479;62.642;17.954;2022-10-16T04:35:38;100230.42;;;3.11;75.11
43394;BME280;62479;62.642;17.954;2022-10-16T04:38:07;100224.83;;;3.29;74.99
43394;BME280;62479;62.642;17.954;2022-10-16T04:40:36;100204.70;;;3.30;74.89
43394;BME280;62479;62.642;17.954;2022-10-16T04:43:05;100203.64;;;3.46;74.79
43394;BME280;62479;62.642;17.954;2022-10-16T04:45:34;100196.66;;;3.49;75.44
43394;BME280;62479;62.642;17.954;2022-10-16T04:48:05;100195.74;;;3.55;75.82
43394;BME280;62479;62.642;17.954;2022-10-16T04:50:33;100185.70;;;3.50;76.45
43394;BME280;62479;62.642;17.954;2022-10-16T04:53:02;100193.92;;;3.41;76.79
43394;BME280;62479;62.642;17.954;2022-10-16T04:55:31;100199.78;;;3.42;77.23
43394;BME280;62479;62.642;17.954;2022-10-16T04:58:00;100197.25;;;3.45;77.59
43394;BME280;62479;62.642;17.954;2022-10-16T05:00:28;100200.28;;;3.34;77.74
43394;BME280;62479;62.642;17.954;2022-10-16T05:02:57;100197.55;;;3.30;77.93
43394;BME280;62479;62.642;17.954;2022-10-16T05:05:26;100179.38;;;3.29;79.13
43394;BME280;62479;62.642;17.954;2022-10-16T05:07:55;100147.36;;;3.55;81.58
43394;BME280;62479;62.642;17.954;2022-10-16T05:10:25;100106.73;;;4.11;81.46
43394;BME280;62479;62.642;17.954;2022-10-16T05:12:54;100117.78;;;4.20;82.87
43394;BME280;62479;62.642;17.954;2022-10-16T05:15:23;100105.25;;;4.60;83.10
43394;BME280;62479;62.642;17.954;2022-10-16T05:17:53;100117.70;;;4.81;83.07
43394;BME280;62479;62.642;17.954;2022-10-16T05:20:24;100108.69;;;4.82;83.08
43394;BME280;62479;62.642;17.954;2022-10-16T05:22:55;100112.71;;;4.85;83.22
43394;BME280;62479;62.642;17.954;2022-10-16T05:25:24;100106.53;;;5.01;83.45
43394;BME280;62479;62.642;17.954;2022-10-16T05:27:53;100111.31;;;5.16;83.25
43394;BME280;62479;62.642;17.954;2022-10-16T05:30:22;100113.24;;;5.06;83.34
43394;BME280;62479;62.642;17.954;2022-10-16T05:32:53;100103.40;;;5.14;83.24
43394;BME280;62479;62.642;17.954;2022-10-16T05:35:22;100087.30;;;5.15;83.74
43394;BME280;62479;62.642;17.954;2022-10-16T05:37:50;100089.79;;;5.14;83.61
43394;BME280;62479;62.642;17.954;2022-10-16T05:40:27;100087.78;;;5.32;83.64
43394;BME280;62479;62.642;17.954;2022-10-16T05:43:02;100083.84;;;5.25;83.76
43394;BME280;62479;62.642;17.954;2022-10-16T05:45:34;100083.24;;;5.27;84.27
43394;BME280;62479;62.642;17.954;2022-10-16T05:48:05;100079.23;;;5.40;84.65
43394;BME280;62479;62.642;17.954;2022-10-16T05:50:35;100076.13;;;5.52;84.47
43394;BME280;62479;62.642;17.954;2022-10-16T05:53:05;100066.59;;;5.65;84.14
43394;BME280;62479;62.642;17.954;2022-10-16T05:55:37;100085.01;;;5.71;83.87
43394;BME280;62479;62.642;17.954;2022-10-16T05:58:06;100070.47;;;5.92;82.87
43394;BME280;62479;62.642;17.954;2022-10-16T06:00:35;100064.69;;;6.03;83.20
43394;BME280;62479;62.642;17.954;2022-10-16T06:03:07;100050.70;;;6.13;82.48
43394;BME280;62479;62.642;17.954;2022-10-16T06:05:36;100047.86;;;6.12;82.98
43394;BME280;62479;62.642;17.954;2022-10-16T06:08:07;100041.81;;;6.32;83.44
43394;BME280;62479;62.642;17.954;2022-10-16T06:10:37;100035.65;;;6.37;83.38
43394;BME280;62479;62.642;17.954;2022-10-16T06:13:06;100025.18;;;6.40;83.22
43394;BME280;62479;62.642;17.954;2022-10-16T06:15:35;100028.62;;;6.55;83.05
43394;BME280;62479;62.642;17.954;2022-10-16T06:18:06;100029.14;;;6.52;82.91
43394;BME280;62479;62.642;17.954;2022-10-16T06:20:36;100029.95;;;6.61;82.72
43394;BME280;62479;62.642;17.954;2022-10-16T06:23:05;100029.98;;;6.62;82.90
43394;BME280;62479;62.642;17.954;2022-10-16T06:25:35;100026.64;;;6.78;82.85
43394;BME280;62479;62.642;17.954;2022-10-16T06:28:05;100020.03;;;7.00;82.91
43394;BME280;62479;62.642;17.954;2022-10-16T06:30:35;100018.18;;;7.21;82.98
43394;BME280;62479;62.642;17.954;2022-10-16T06:33:05;100015.69;;;7.51;82.64
43394;BME280;62479;62.642;17.954;2022-10-16T06:35:34;100015.19;;;7.44;82.05
43394;BME280;62479;62.642;17.954;2022-10-16T06:38:05;100015.88;;;7.66;81.87
43394;BME280;62479;62.642;17.954;2022-10-16T06:40:34;100015.14;;;7.64;81.87
43394;BME280;62479;62.642;17.954;2022-10-16T06:43:05;100011.61;;;7.63;81.77
43394;BME280;62479;62.642;17.954;2022-10-16T06:45:40;100015.49;;;7.89;81.45
43394;BME280;62479;62.642;17.954;2022-10-16T06:48:09;100012.68;;;7.79;81.45
43394;BME280;62479;62.642;17.954;2022-10-16T06:50:40;100015.03;;;7.86;81.61
43394;BME280;62479;62.642;17.954;2022-10-16T06:53:09;100010.02;;;7.81;81.34
43394;BME280;62479;62.642;17.954;2022-10-16T06:55:39;100013.34;;;7.93;81.33
43394;BME280;62479;62.642;17.954;2022-10-16T06:58:07;100013.63;;;8.01;81.35
43394;BME280;62479;62.642;17.954;2022-10-16T07:00:37;100010.27;;;8.03;80.82
43394;BME280;62479;62.642;17.954;2022-10-16T07:03:38;100012.87;;;8.28;80.37
43394;BME280;62479;62.642;17.954;2022-10-16T11:44:59;100052.73;;;17.39;45.09
43394;BME280;62479;62.642;17.954;2022-10-16T11:47:34;100048.77;;;18.00;41.95
43394;BME280;62479;62.642;17.954;2022-10-16T11:50:09;100043.98;;;18.57;40.10
43394;BME280;62479;62.642;17.954;2022-10-16T11:52:47;100053.88;;;18.61;39.01
43394;BME280;62479;62.642;17.954;2022-10-16T11:55:23;100059.48;;;18.11;39.47
43394;BME280;62479;62.642;17.954;2022-10-16T12:53:19;100063.58;;;14.87;43.55
43394;BME280;62479;62.642;17.954;2022-10-16T12:55:55;100063.42;;;15.19;42.81
43394;BME280;62479;62.642;17.954;2022-10-16T12:58:41;100066.49;;;15.22;43.06
43394;BME280;62479;62.642;17.954;2022-10-16T13:01:24;100072.95;;;15.23;44.08
43394;BME280;62479;62.642;17.954;2022-10-16T13:04:10;100078.08;;;15.15;44.33
43394;BME280;62479;62.642;17.954;2022-10-16T13:19:32;100070.09;;;15.24;42.57
43394;BME280;62479;62.642;17.954;2022-10-16T13:22:10;100071.33;;;15.12;43.68
43394;BME280;62479;62.642;17.954;2022-10-16T13:24:55;100070.71;;;15.10;43.37
43394;BME280;62479;62.642;17.954;2022-10-16T13:27:35;100069.89;;;14.97;43.58
43394;BME280;62479;62.642;17.954;2022-10-16T13:30:12;100068.65;;;14.92;43.71
43394;BME280;62479;62.642;17.954;2022-10-16T14:56:21;100095.69;;;7.02;67.41
43394;BME280;62479;62.642;17.954;2022-10-16T14:58:51;100094.47;;;7.01;67.80
43394;BME280;62479;62.642;17.954;2022-10-16T15:01:20;100096.08;;;7.14;68.24
43394;BME280;62479;62.642;17.954;2022-10-16T15:03:49;100094.94;;;7.03;68.49
43394;BME280;62479;62.642;17.954;2022-10-16T15:06:18;100090.62;;;7.00;68.68
43394;BME280;62479;62.642;17.954;2022-10-16T15:08:46;100087.04;;;6.87;68.92
43394;BME280;62479;62.642;17.954;2022-10-16T18:31:39;100069.72;;;3.57;76.58
43394;BME280;62479;62.642;17.954;2022-10-16T18:34:07;100073.51;;;3.45;77.02
43394;BME280;62479;62.642;17.954;2022-10-16T18:36:36;100070.13;;;3.23;77.62
43394;BME280;62479;62.642;17.954;2022-10-16T18:39:06;100069.57;;;3.32;78.16
43394;BME280;62479;62.642;17.954;2022-10-16T18:41:36;100074.11;;;3.30;78.36
43394;BME280;62479;62.642;17.954;2022-10-16T18:44:07;100074.53;;;3.35;78.59
43394;BME280;62479;62.642;17.954;2022-10-16T18:46:36;100079.42;;;3.29;78.71
43394;BME280;62479;62.642;17.954;2022-10-16T18:49:04;100078.99;;;3.24;78.13
43394;BME280;62479;62.642;17.954;2022-10-16T18:51:35;100073.10;;;3.13;78.16
43394;BME280;62479;62.642;17.954;2022-10-16T18:54:08;100070.21;;;3.13;78.37
43394;BME280;62479;62.642;17.954;2022-10-16T18:56:38;100071.51;;;3.07;78.22
43394;BME280;62479;62.642;17.954;2022-10-16T18:59:08;100071.70;;;3.08;77.50
43394;BME280;62479;62.642;17.954;2022-10-16T19:01:39;100069.09;;;3.13;77.25
43394;BME280;62479;62.642;17.954;2022-10-16T19:04:10;100080.69;;;3.08;77.11
43394;BME280;62479;62.642;17.954;2022-10-16T19:06:41;100074.26;;;3.06;77.72
43394;BME280;62479;62.642;17.954;2022-10-16T19:09:13;100071.46;;;3.04;77.85
43394;BME280;62479;62.642;17.954;2022-10-16T19:11:42;100076.71;;;3.02;77.75
43394;BME280;62479;62.642;17.954;2022-10-16T19:14:13;100079.98;;;2.92;77.88
43394;BME280;62479;62.642;17.954;2022-10-16T19:16:43;100085.52;;;2.78;78.32
43394;BME280;62479;62.642;17.954;2022-10-16T19:19:15;100088.52;;;2.68;78.38
43394;BME280;62479;62.642;17.954;2022-10-16T19:21:43;100089.09;;;2.75;77.93
43394;BME280;62479;62.642;17.954;2022-10-16T19:24:13;100088.14;;;2.67;77.65
43394;BME280;62479;62.642;17.954;2022-10-16T19:26:43;100086.44;;;2.58;77.65
43394;BME280;62479;62.642;17.954;2022-10-16T19:29:20;100085.83;;;2.58;77.80
43394;BME280;62479;62.642;17.954;2022-10-16T19:31:49;100086.77;;;2.36;78.30
43394;BME280;62479;62.642;17.954;2022-10-16T19:34:19;100095.98;;;2.41;78.62
43394;BME280;62479;62.642;17.954;2022-10-16T19:36:48;100101.13;;;2.31;78.59
43394;BME280;62479;62.642;17.954;2022-10-16T19:39:16;100102.61;;;2.32;77.75
43394;BME280;62479;62.642;17.954;2022-10-16T19:41:45;100103.80;;;2.26;78.41
43394;BME280;62479;62.642;17.954;2022-10-16T19:44:15;100102.12;;;2.39;78.36
43394;BME280;62479;62.642;17.954;2022-10-16T19:46:46;100101.88;;;2.38;78.07
43394;BME280;62479;62.642;17.954;2022-10-16T19:49:17;100103.78;;;2.50;77.29
43394;BME280;62479;62.642;17.954;2022-10-16T19:51:47;100107.83;;;2.58;77.67
43394;BME280;62479;62.642;17.954;2022-10-16T19:54:15;100101.61;;;2.88;77.63
43394;BME280;62479;62.642;17.954;2022-10-16T19:56:44;100101.26;;;2.83;77.23
43394;BME280;62479;62.642;17.954;2022-10-16T19:59:14;100097.00;;;2.92;76.95
43394;BME280;62479;62.642;17.954;2022-10-16T20:01:44;100095.23;;;2.71;77.36
43394;BME280;62479;62.642;17.954;2022-10-16T20:04:13;100098.56;;;2.66;77.15
43394;BME280;62479;62.642;17.954;2022-10-16T20:06:42;100102.25;;;2.49;78.11
43394;BME280;62479;62.642;17.954;2022-10-16T20:09:12;100104.96;;;2.41;78.18
43394;BME280;62479;62.642;17.954;2022-10-16T20:11:42;100105.84;;;2.41;78.02
43394;BME280;62479;62.642;17.954;2022-10-16T20:14:11;100110.68;;;2.23;77.58
43394;BME280;62479;62.642;17.954;2022-10-16T20:16:40;100116.18;;;2.16;77.79
43394;BME280;62479;62.642;17.954;2022-10-16T20:19:09;100120.39;;;2.11;78.20
43394;BME280;62479;62.642;17.954;2022-10-16T20:21:38;100130.94;;;2.04;77.67
43394;BME280;62479;62.642;17.954;2022-10-16T20:24:07;100132.48;;;1.95;77.80
43394;BME280;62479;62.642;17.954;2022-10-16T20:26:36;100134.26;;;1.89;77.75
43394;BME280;62479;62.642;17.954;2022-10-16T20:29:05;100132.17;;;1.90;77.69
43394;BME280;62479;62.642;17.954;2022-10-16T20:31:34;100134.14;;;2.04;77.99
43394;BME280;62479;62.642;17.954;2022-10-16T20:34:06;100139.32;;;1.97;77.48
43394;BME280;62479;62.642;17.954;2022-10-16T20:36:39;100144.53;;;2.05;77.37
43394;BME280;62479;62.642;17.954;2022-10-16T20:39:07;100144.39;;;1.97;77.76
43394;BME280;62479;62.642;17.954;2022-10-16T20:41:36;100145.40;;;2.02;78.71
43394;BME280;62479;62.642;17.954;2022-10-16T20:44:06;100146.24;;;1.85;78.47
43394;BME280;62479;62.642;17.954;2022-10-16T20:46:35;100146.61;;;1.91;79.14
43394;BME280;62479;62.642;17.954;2022-10-16T20:49:04;100146.08;;;1.74;79.68
43394;BME280;62479;62.642;17.954;2022-10-16T20:51:33;100147.28;;;1.96;79.45
43394;BME280;62479;62.642;17.954;2022-10-16T20:54:04;100152.99;;;1.90;79.25
43394;BME280;62479;62.642;17.954;2022-10-16T20:56:35;100154.68;;;1.86;78.77
43394;BME280;62479;62.642;17.954;2022-10-16T20:59:04;100160.67;;;1.83;78.47
43394;BME280;62479;62.642;17.954;2022-10-16T21:01:33;100159.14;;;1.85;78.43
43394;BME280;62479;62.642;17.954;2022-10-16T21:04:05;100158.59;;;1.82;78.13
43394;BME280;62479;62.642;17.954;2022-10-16T21:06:36;100158.64;;;1.68;78.09
43394;BME280;62479;62.642;17.954;2022-10-16T21:09:05;100161.56;;;1.77;77.94
43394;BME280;62479;62.642;17.954;2022-10-16T21:11:36;100164.92;;;1.71;78.58
43394;BME280;62479;62.642;17.954;2022-10-16T21:14:07;100167.71;;;1.72;78.46
43394;BME280;62479;62.642;17.954;2022-10-16T21:16:36;100170.38;;;1.51;78.44
43394;BME280;62479;62.642;17.954;2022-10-16T21:19:05;100169.64;;;1.75;79.43
43394;BME280;62479;62.642;17.954;2022-10-16T21:21:35;100169.05;;;1.72;80.17
43394;BME280;62479;62.642;17.954;2022-10-16T21:24:06;100170.86;;;1.81;80.22
43394;BME280;62479;62.642;17.954;2022-10-16T21:26:35;100176.28;;;1.98;80.45
43394;BME280;62479;62.642;17.954;2022-10-16T21:29:05;100180.54;;;2.13;79.66
43394;BME280;62479;62.642;17.954;2022-10-16T21:31:35;100181.47;;;2.22;78.78
43394;BME280;62479;62.642;17.954;2022-10-16T21:34:04;100184.16;;;2.39;78.22
43394;BME280;62479;62.642;17.954;2022-10-16T21:36:35;100185.42;;;2.34;77.88
43394;BME280;62479;62.642;17.954;2022-10-16T21:39:06;100181.34;;;2.54;77.72
43394;BME280;62479;62.642;17.954;2022-10-16T21:41:36;100180.27;;;2.50;77.63
43394;BME280;62479;62.642;17.954;2022-10-16T21:44:06;100179.56;;;2.57;78.27
43394;BME280;62479;62.642;17.954;2022-10-16T21:46:38;100180.94;;;2.67;77.74
43394;BME280;62479;62.642;17.954;2022-10-16T21:49:11;100179.29;;;2.75;78.00
43394;BME280;62479;62.642;17.954;2022-10-16T21:51:42;100180.06;;;2.88;77.57
43394;BME280;62479;62.642;17.954;2022-10-16T21:54:14;100185.53;;;2.89;77.06
43394;BME280;62479;62.642;17.954;2022-10-16T21:56:43;100189.57;;;2.81;76.59
43394;BME280;62479;62.642;17.954;2022-10-16T21:59:13;100192.93;;;2.68;76.46
43394;BME280;62479;62.642;17.954;2022-10-16T22:03:26;100197.85;;;2.62;76.71
43394;BME280;62479;62.642;17.954;2022-10-16T22:05:57;100201.34;;;2.78;76.70
43394;BME280;62479;62.642;17.954;2022-10-16T22:08:28;100206.27;;;2.79;76.56
43394;BME280;62479;62.642;17.954;2022-10-16T22:11:02;100210.04;;;2.84;76.65
43394;BME280;62479;62.642;17.954;2022-10-16T22:13:32;100212.46;;;2.87;76.65
43394;BME280;62479;62.642;17.954;2022-10-16T22:16:01;100214.52;;;2.86;76.60
43394;BME280;62479;62.642;17.954;2022-10-16T22:18:30;100219.19;;;2.95;76.15
43394;BME280;62479;62.642;17.954;2022-10-16T22:20:59;100227.48;;;2.98;75.96
43394;BME280;62479;62.642;17.954;2022-10-16T22:23:28;100234.15;;;2.79;76.05
43394;BME280;62479;62.642;17.954;2022-10-16T22:25:58;100239.43;;;2.91;75.91
43394;BME280;62479;62.642;17.954;2022-10-16T22:28:27;100239.31;;;2.93;75.84
43394;BME280;62479;62.642;17.954;2022-10-16T22:30:56;100240.08;;;2.82;75.93
43394;BME280;62479;62.642;17.954;2022-10-16T22:33:29;100240.93;;;2.70;75.97
43394;BME280;62479;62.642;17.954;2022-10-16T22:36:00;100244.38;;;2.56;76.25
43394;BME280;62479;62.642;17.954;2022-10-16T22:38:30;100242.86;;;2.34;76.27
43394;BME280;62479;62.642;17.954;2022-10-16T22:41:00;100250.44;;;2.25;76.75
43394;BME280;62479;62.642;17.954;2022-10-16T22:43:30;100252.81;;;2.17;77.02
43394;BME280;62479;62.642;17.954;2022-10-16T22:46:01;100254.99;;;2.17;76.98
43394;BME280;62479;62.642;17.954;2022-10-16T22:48:30;100259.38;;;1.94;77.14
43394;BME280;62479;62.642;17.954;2022-10-16T22:50:59;100261.84;;;1.96;77.22
43394;BME280;62479;62.642;17.954;2022-10-16T22:53:29;100264.82;;;1.92;77.47
43394;BME280;62479;62.642;17.954;2022-10-16T22:55:59;100269.94;;;1.96;77.58
43394;BME280;62479;62.642;17.954;2022-10-16T22:58:28;100272.79;;;1.90;77.88
43394;BME280;62479;62.642;17.954;2022-10-16T23:00:57;100282.61;;;1.91;78.16
43394;BME280;62479;62.642;17.954;2022-10-16T23:03:26;100283.66;;;1.78;78.12
43394;BME280;62479;62.642;17.954;2022-10-16T23:05:54;100287.68;;;1.81;78.32
43394;BME280;62479;62.642;17.954;2022-10-16T23:08:24;100292.15;;;1.70;78.38
43394;BME280;62479;62.642;17.954;2022-10-16T23:10:54;100297.01;;;1.70;77.97
43394;BME280;62479;62.642;17.954;2022-10-16T23:13:23;100300.77;;;1.67;77.46
43394;BME280;62479;62.642;17.954;2022-10-16T23:15:52;100296.83;;;1.70;77.54
43394;BME280;62479;62.642;17.954;2022-10-16T23:18:21;100299.02;;;1.74;77.81
43394;BME280;62479;62.642;17.954;2022-10-16T23:20:50;100302.58;;;1.93;77.66
43394;BME280;62479;62.642;17.954;2022-10-16T23:23:19;100306.74;;;1.88;77.56
43394;BME280;62479;62.642;17.954;2022-10-16T23:25:47;100312.24;;;1.95;77.34
43394;BME280;62479;62.642;17.954;2022-10-16T23:28:16;100314.83;;;2.05;77.07
43394;BME280;62479;62.642;17.954;2022-10-16T23:30:45;100316.20;;;2.07;77.52
43394;BME280;62479;62.642;17.954;2022-10-16T23:33:13;100320.81;;;2.02;77.49
43394;BME280;62479;62.642;17.954;2022-10-16T23:35:42;100320.28;;;1.99;77.18
43394;BME280;62479;62.642;17.954;2022-10-16T23:38:11;100321.20;;;2.01;77.21